Aérodrome :
LOGIN :

S'inscrire | Disclaimer

   EN    FR    IT 

 










Légende :    VFR   VFR Marginal   IFR   IFR Intensif   IFR Très Intensif
Visi : 
Plafond : 
>= 8 km
>= 3000ft
5 à 8 km
1000 à 3000 ft
1500m à 5 km
500 à 1000 ft
800 à 1500m
200 à 500 ft
< 800m
< 200 ft
Symboles :   Orages  Brouillard  Fortes neiges  Fortes précipitations  Vent > 20 kt
SIGMETs :   Divers  Orages  Givrage  Turbulence  Onde Orograph.  Cendres Volcan.






- Altitude de l'aérodrome : 1375 ft
- Code IATA : SCV


LRSV - Suceava Stefan cel Mare

DERNIER METAR :
  • 151430Z 32011KT 290V350 9999 SCT020 M07/M11 Q1012 R16/450395

METARs EXPIRÉS :
  • 151400Z AUTO 32012KT 9999 -SN FEW020/// BKN075/// M07/M11 Q1012
  • 151330Z 35013KT 9999 -SN FEW012 BKN036 M07/M10 Q1012 R16/450395
  • 151300Z 35015KT 9999 -SN FEW013 BKN030 M07/M10 Q1011 R16/450394
  • 151230Z 35013KT 8000 -SN SCT010 BKN026 M06/M08 Q1011 R16/450394
  • 151200Z 34014KT 8000 -SN FEW014 BKN027 M06/M08 Q1011 R16/450394

TAF TAF LRSV
Valide du 15 à 15h jusqu'au 16 à 00h UTC


151400Z 1515/1600 32012KT 9999 SCT015 BKN030
PROB30
TEMPO 1515/1518 5000 -SN



MET'MAP, la Météo Aéronautique d'un coup d'oeil ! - Copyright ORBIFLY Décembre 2007 - Disclaimer

ORBIFLY MET'MAP TEAM :

Programmation & Développement : Alexandra Zaïnal
Sur une idée originale de : Baudouin d'Aumeries
Assistance à la programmation : Marc-Olivier Méhu
Soutien technique & logistique : Manuel Goepfert

Contact : metmap@orbifly.com




SOURCES & CREDITS :

   NOAA